Green Creek, New Jersey
Current Conditions -  °F | °C
As of 10:55 AM on Friday 31 Oct 2014 (Local Time) from KWWD Reporting Station
Clear Clear  
Wind Chill: 50°   Ceiling: Unl
Heat Index: 50°   Visibility: 10mi
Dew Point: 37°   Wind: 7mph
Humidity: 62%   Direction: 20°NNE
Pressure: 29.97"   Gusts: NA
Location:  39.05°N, 74.9°W
Report Text: KWWD 311455Z AUTO 02006KT 10SM CLR 10/03 A2997 RMK AO1 57014
Loading
Personal Weather Stations






























Interactive Weather Map
Tropical Storm Tracking
New forecast layout! Learn more

10-Day Weather Forecast

Advertisements
Track Severe Weather on mobile